Terminal Aerodrome Forecast
Issued by NWS

Current Version | Previous Version | Text Only | Print | Product List | Glossary On
Versions: 1 2 3 4 5 6 7 8 9 10 11 12
000
FTUS45 KGGW 061125
TAFSDY
TAF
KSDY 061125Z 0612/0712 35017G24KT P6SM BKN140
     FM061500 36016G23KT P6SM BKN120
     FM070000 02012KT P6SM SCT150
     FM070300 02006KT P6SM SCT200
      AMD LTD TO CLD VIS AND WIND=

USA.gov is the U.S. government's official web portal to all federal, state and local government web resources and services.